sensor_id;sensor_type;location;lat;lon;timestamp;temperature;humidity
31113;DHT22;17763;48.730;9.136;2023-06-22T00:00:46;21.40;99.90
31113;DHT22;17763;48.730;9.136;2023-06-22T00:03:12;21.40;99.90
31113;DHT22;17763;48.730;9.136;2023-06-22T00:05:38;21.30;99.90
31113;DHT22;17763;48.730;9.136;2023-06-22T00:08:04;21.30;99.90
31113;DHT22;17763;48.730;9.136;2023-06-22T00:10:35;21.30;99.90
31113;DHT22;17763;48.730;9.136;2023-06-22T00:13:01;21.30;99.90
31113;DHT22;17763;48.730;9.136;2023-06-22T00:15:29;21.30;99.90
31113;DHT22;17763;48.730;9.136;2023-06-22T00:17:55;21.30;99.90
31113;DHT22;17763;48.730;9.136;2023-06-22T00:20:22;21.30;99.90
31113;DHT22;17763;48.730;9.136;2023-06-22T00:22:55;21.30;99.90
31113;DHT22;17763;48.730;9.136;2023-06-22T00:25:21;21.20;99.90
31113;DHT22;17763;48.730;9.136;2023-06-22T00:27:47;21.20;99.90
31113;DHT22;17763;48.730;9.136;2023-06-22T00:30:15;21.20;99.90
31113;DHT22;17763;48.730;9.136;2023-06-22T00:32:40;21.20;99.90
31113;DHT22;17763;48.730;9.136;2023-06-22T00:35:06;21.20;99.90
31113;DHT22;17763;48.730;9.136;2023-06-22T00:37:32;21.20;99.90
31113;DHT22;17763;48.730;9.136;2023-06-22T00:39:58;21.10;99.90
31113;DHT22;17763;48.730;9.136;2023-06-22T00:42:24;21.10;99.90
31113;DHT22;17763;48.730;9.136;2023-06-22T00:44:50;21.10;99.90
31113;DHT22;17763;48.730;9.136;2023-06-22T00:47:17;21.10;99.90
31113;DHT22;17763;48.730;9.136;2023-06-22T00:49:43;21.10;99.90
31113;DHT22;17763;48.730;9.136;2023-06-22T00:52:11;21.00;99.90
31113;DHT22;17763;48.730;9.136;2023-06-22T00:54:49;21.00;99.90
31113;DHT22;17763;48.730;9.136;2023-06-22T00:57:21;21.10;99.90
31113;DHT22;17763;48.730;9.136;2023-06-22T00:59:48;21.10;99.90
31113;DHT22;17763;48.730;9.136;2023-06-22T01:02:16;21.00;99.90
31113;DHT22;17763;48.730;9.136;2023-06-22T01:04:42;21.00;99.90
31113;DHT22;17763;48.730;9.136;2023-06-22T01:09:59;21.00;99.90
31113;DHT22;17763;48.730;9.136;2023-06-22T01:12:30;21.00;99.90
31113;DHT22;17763;48.730;9.136;2023-06-22T01:15:14;20.90;99.90
31113;DHT22;17763;48.730;9.136;2023-06-22T01:17:41;20.90;99.90
31113;DHT22;17763;48.730;9.136;2023-06-22T01:20:09;20.90;99.90
31113;DHT22;17763;48.730;9.136;2023-06-22T01:25:48;20.90;99.90
31113;DHT22;17763;48.730;9.136;2023-06-22T01:31:04;20.80;99.90
31113;DHT22;17763;48.730;9.136;2023-06-22T01:33:37;20.80;99.90
31113;DHT22;17763;48.730;9.136;2023-06-22T01:36:05;20.80;99.90
31113;DHT22;17763;48.730;9.136;2023-06-22T01:38:32;20.70;99.90
31113;DHT22;17763;48.730;9.136;2023-06-22T01:41:00;20.70;99.90
31113;DHT22;17763;48.730;9.136;2023-06-22T01:43:27;20.70;99.90
31113;DHT22;17763;48.730;9.136;2023-06-22T01:45:54;20.70;99.90
31113;DHT22;17763;48.730;9.136;2023-06-22T01:48:21;20.70;99.90
31113;DHT22;17763;48.730;9.136;2023-06-22T01:50:50;20.70;99.90
31113;DHT22;17763;48.730;9.136;2023-06-22T01:53:18;20.70;99.90
31113;DHT22;17763;48.730;9.136;2023-06-22T01:55:45;20.70;99.90
31113;DHT22;17763;48.730;9.136;2023-06-22T01:58:11;20.70;99.90
31113;DHT22;17763;48.730;9.136;2023-06-22T02:00:38;20.70;99.90
31113;DHT22;17763;48.730;9.136;2023-06-22T02:03:13;20.60;99.90
31113;DHT22;17763;48.730;9.136;2023-06-22T02:08:54;20.60;99.90
31113;DHT22;17763;48.730;9.136;2023-06-22T02:11:24;20.50;99.90
31113;DHT22;17763;48.730;9.136;2023-06-22T02:13:52;20.40;99.90
31113;DHT22;17763;48.730;9.136;2023-06-22T02:16:26;20.30;99.90
31113;DHT22;17763;48.730;9.136;2023-06-22T02:18:55;20.20;99.90
31113;DHT22;17763;48.730;9.136;2023-06-22T02:21:27;20.20;99.90
31113;DHT22;17763;48.730;9.136;2023-06-22T02:23:52;20.20;99.90
31113;DHT22;17763;48.730;9.136;2023-06-22T02:26:18;20.10;99.90
31113;DHT22;17763;48.730;9.136;2023-06-22T02:28:46;20.10;99.90
31113;DHT22;17763;48.730;9.136;2023-06-22T02:31:12;20.10;99.90
31113;DHT22;17763;48.730;9.136;2023-06-22T02:33:38;20.00;99.90
31113;DHT22;17763;48.730;9.136;2023-06-22T02:36:06;19.90;99.90
31113;DHT22;17763;48.730;9.136;2023-06-22T02:38:35;19.90;99.90
31113;DHT22;17763;48.730;9.136;2023-06-22T02:41:04;19.80;99.90
31113;DHT22;17763;48.730;9.136;2023-06-22T02:43:32;19.80;99.90
31113;DHT22;17763;48.730;9.136;2023-06-22T02:45:59;19.70;99.90
31113;DHT22;17763;48.730;9.136;2023-06-22T02:48:25;19.80;99.90
31113;DHT22;17763;48.730;9.136;2023-06-22T02:50:51;19.80;99.90
31113;DHT22;17763;48.730;9.136;2023-06-22T02:53:17;19.70;99.90
31113;DHT22;17763;48.730;9.136;2023-06-22T02:55:42;19.80;99.90
31113;DHT22;17763;48.730;9.136;2023-06-22T02:58:10;19.80;99.90
31113;DHT22;17763;48.730;9.136;2023-06-22T03:00:36;19.80;99.90
31113;DHT22;17763;48.730;9.136;2023-06-22T03:03:01;19.80;99.90
31113;DHT22;17763;48.730;9.136;2023-06-22T03:05:27;19.80;99.90
31113;DHT22;17763;48.730;9.136;2023-06-22T03:07:53;19.80;99.90
31113;DHT22;17763;48.730;9.136;2023-06-22T03:10:18;19.80;99.90
31113;DHT22;17763;48.730;9.136;2023-06-22T03:12:44;19.80;99.90
31113;DHT22;17763;48.730;9.136;2023-06-22T03:15:11;19.80;99.90
31113;DHT22;17763;48.730;9.136;2023-06-22T03:17:38;19.70;99.90
31113;DHT22;17763;48.730;9.136;2023-06-22T03:20:05;19.60;99.90
31113;DHT22;17763;48.730;9.136;2023-06-22T03:22:41;19.60;99.90
31113;DHT22;17763;48.730;9.136;2023-06-22T03:25:10;19.50;99.90
31113;DHT22;17763;48.730;9.136;2023-06-22T03:27:40;19.50;99.90
31113;DHT22;17763;48.730;9.136;2023-06-22T03:30:10;19.40;99.90
31113;DHT22;17763;48.730;9.136;2023-06-22T03:32:36;19.40;99.90
31113;DHT22;17763;48.730;9.136;2023-06-22T03:35:02;19.40;99.90
31113;DHT22;17763;48.730;9.136;2023-06-22T03:37:28;19.40;99.90
31113;DHT22;17763;48.730;9.136;2023-06-22T03:39:54;19.40;99.90
31113;DHT22;17763;48.730;9.136;2023-06-22T03:42:20;19.50;99.90
31113;DHT22;17763;48.730;9.136;2023-06-22T03:44:47;19.50;99.90
31113;DHT22;17763;48.730;9.136;2023-06-22T03:47:13;19.50;99.90
31113;DHT22;17763;48.730;9.136;2023-06-22T03:49:39;19.40;99.90
31113;DHT22;17763;48.730;9.136;2023-06-22T03:52:05;19.40;99.90
31113;DHT22;17763;48.730;9.136;2023-06-22T03:54:31;19.40;99.90
31113;DHT22;17763;48.730;9.136;2023-06-22T03:56:57;19.40;99.90
31113;DHT22;17763;48.730;9.136;2023-06-22T03:59:26;19.40;99.90
31113;DHT22;17763;48.730;9.136;2023-06-22T04:01:52;19.50;99.90
31113;DHT22;17763;48.730;9.136;2023-06-22T04:04:18;19.60;99.90
31113;DHT22;17763;48.730;9.136;2023-06-22T04:06:43;19.70;99.90
31113;DHT22;17763;48.730;9.136;2023-06-22T04:09:09;19.80;99.90
31113;DHT22;17763;48.730;9.136;2023-06-22T04:11:35;19.90;99.90
31113;DHT22;17763;48.730;9.136;2023-06-22T04:14:00;20.00;99.90
31113;DHT22;17763;48.730;9.136;2023-06-22T04:16:26;20.00;99.90
31113;DHT22;17763;48.730;9.136;2023-06-22T04:18:52;20.10;99.90
31113;DHT22;17763;48.730;9.136;2023-06-22T04:21:18;20.10;99.90
31113;DHT22;17763;48.730;9.136;2023-06-22T04:23:45;20.10;99.90
31113;DHT22;17763;48.730;9.136;2023-06-22T04:26:12;20.20;99.90
31113;DHT22;17763;48.730;9.136;2023-06-22T04:28:38;20.20;99.90
31113;DHT22;17763;48.730;9.136;2023-06-22T04:31:04;20.20;99.90
31113;DHT22;17763;48.730;9.136;2023-06-22T04:33:30;20.30;99.90
31113;DHT22;17763;48.730;9.136;2023-06-22T04:35:56;20.30;99.90
31113;DHT22;17763;48.730;9.136;2023-06-22T04:38:33;20.30;99.90
31113;DHT22;17763;48.730;9.136;2023-06-22T04:40:59;20.30;99.90
31113;DHT22;17763;48.730;9.136;2023-06-22T04:43:27;20.40;99.90
31113;DHT22;17763;48.730;9.136;2023-06-22T04:45:59;20.40;99.90
31113;DHT22;17763;48.730;9.136;2023-06-22T04:48:29;20.50;99.90
31113;DHT22;17763;48.730;9.136;2023-06-22T04:50:58;20.60;99.90
31113;DHT22;17763;48.730;9.136;2023-06-22T04:53:31;20.60;99.90
31113;DHT22;17763;48.730;9.136;2023-06-22T04:55:56;20.70;99.90
31113;DHT22;17763;48.730;9.136;2023-06-22T04:58:22;20.80;99.90
31113;DHT22;17763;48.730;9.136;2023-06-22T05:00:50;20.90;99.90
31113;DHT22;17763;48.730;9.136;2023-06-22T05:03:17;21.00;99.90
31113;DHT22;17763;48.730;9.136;2023-06-22T05:05:46;21.00;99.90
31113;DHT22;17763;48.730;9.136;2023-06-22T05:08:12;21.10;99.90
31113;DHT22;17763;48.730;9.136;2023-06-22T05:10:40;21.20;99.90
31113;DHT22;17763;48.730;9.136;2023-06-22T05:13:06;21.30;99.90
31113;DHT22;17763;48.730;9.136;2023-06-22T05:15:32;21.40;99.90
31113;DHT22;17763;48.730;9.136;2023-06-22T05:18:04;21.50;99.90
31113;DHT22;17763;48.730;9.136;2023-06-22T05:20:31;21.60;99.90
31113;DHT22;17763;48.730;9.136;2023-06-22T05:22:56;21.80;99.90
31113;DHT22;17763;48.730;9.136;2023-06-22T05:25:22;21.80;99.90
31113;DHT22;17763;48.730;9.136;2023-06-22T05:27:50;22.00;99.90
31113;DHT22;17763;48.730;9.136;2023-06-22T05:30:17;22.10;99.90
31113;DHT22;17763;48.730;9.136;2023-06-22T05:32:44;22.20;99.90
31113;DHT22;17763;48.730;9.136;2023-06-22T05:35:09;22.40;99.90
31113;DHT22;17763;48.730;9.136;2023-06-22T05:37:35;22.50;99.90
31113;DHT22;17763;48.730;9.136;2023-06-22T05:40:00;22.70;99.90
31113;DHT22;17763;48.730;9.136;2023-06-22T05:42:26;22.80;99.90
31113;DHT22;17763;48.730;9.136;2023-06-22T05:44:53;23.00;99.90
31113;DHT22;17763;48.730;9.136;2023-06-22T05:47:18;23.10;99.90
31113;DHT22;17763;48.730;9.136;2023-06-22T05:49:44;23.30;99.90
31113;DHT22;17763;48.730;9.136;2023-06-22T05:52:12;23.40;99.90
31113;DHT22;17763;48.730;9.136;2023-06-22T05:54:38;23.50;99.90
31113;DHT22;17763;48.730;9.136;2023-06-22T05:57:04;23.70;99.90
31113;DHT22;17763;48.730;9.136;2023-06-22T05:59:30;23.80;99.90
31113;DHT22;17763;48.730;9.136;2023-06-22T06:01:55;23.90;99.90
31113;DHT22;17763;48.730;9.136;2023-06-22T06:04:21;24.00;99.90
31113;DHT22;17763;48.730;9.136;2023-06-22T06:06:47;24.00;99.90
31113;DHT22;17763;48.730;9.136;2023-06-22T06:09:14;23.90;99.90
31113;DHT22;17763;48.730;9.136;2023-06-22T06:11:40;23.90;99.90
31113;DHT22;17763;48.730;9.136;2023-06-22T06:14:08;23.80;99.90
31113;DHT22;17763;48.730;9.136;2023-06-22T06:16:36;23.80;99.90
31113;DHT22;17763;48.730;9.136;2023-06-22T06:19:01;23.80;99.90
31113;DHT22;17763;48.730;9.136;2023-06-22T06:21:27;23.80;99.90
31113;DHT22;17763;48.730;9.136;2023-06-22T06:23:52;23.90;99.90
31113;DHT22;17763;48.730;9.136;2023-06-22T06:26:18;24.10;99.90
31113;DHT22;17763;48.730;9.136;2023-06-22T06:28:53;24.30;99.90
31113;DHT22;17763;48.730;9.136;2023-06-22T06:31:21;24.50;99.90
31113;DHT22;17763;48.730;9.136;2023-06-22T06:33:50;24.60;99.90
31113;DHT22;17763;48.730;9.136;2023-06-22T06:36:16;24.80;99.90
31113;DHT22;17763;48.730;9.136;2023-06-22T06:38:42;25.00;99.90
31113;DHT22;17763;48.730;9.136;2023-06-22T06:41:12;25.10;99.90
31113;DHT22;17763;48.730;9.136;2023-06-22T06:43:38;25.10;99.90
31113;DHT22;17763;48.730;9.136;2023-06-22T06:46:03;25.30;99.90
31113;DHT22;17763;48.730;9.136;2023-06-22T06:48:29;25.40;99.90
31113;DHT22;17763;48.730;9.136;2023-06-22T06:50:54;25.30;98.90
31113;DHT22;17763;48.730;9.136;2023-06-22T06:53:22;25.30;98.90
31113;DHT22;17763;48.730;9.136;2023-06-22T06:55:48;25.50;99.10
31113;DHT22;17763;48.730;9.136;2023-06-22T06:58:14;25.60;98.70
31113;DHT22;17763;48.730;9.136;2023-06-22T07:00:40;25.70;98.30
31113;DHT22;17763;48.730;9.136;2023-06-22T07:03:06;25.80;98.10
31113;DHT22;17763;48.730;9.136;2023-06-22T07:05:32;25.90;97.40
31113;DHT22;17763;48.730;9.136;2023-06-22T07:07:58;25.90;97.60
31113;DHT22;17763;48.730;9.136;2023-06-22T07:10:24;25.90;97.10
31113;DHT22;17763;48.730;9.136;2023-06-22T07:12:50;26.00;97.30
31113;DHT22;17763;48.730;9.136;2023-06-22T07:15:15;26.10;97.60
31113;DHT22;17763;48.730;9.136;2023-06-22T07:17:41;26.30;97.30
31113;DHT22;17763;48.730;9.136;2023-06-22T07:20:07;26.40;96.50
31113;DHT22;17763;48.730;9.136;2023-06-22T07:22:41;26.50;96.00
31113;DHT22;17763;48.730;9.136;2023-06-22T07:25:11;26.70;95.80
31113;DHT22;17763;48.730;9.136;2023-06-22T07:27:43;26.80;95.40
31113;DHT22;17763;48.730;9.136;2023-06-22T07:30:09;26.80;94.70
31113;DHT22;17763;48.730;9.136;2023-06-22T07:32:36;26.80;94.30
31113;DHT22;17763;48.730;9.136;2023-06-22T07:35:03;26.90;94.40
31113;DHT22;17763;48.730;9.136;2023-06-22T07:37:29;27.00;94.20
31113;DHT22;17763;48.730;9.136;2023-06-22T07:39:55;27.10;93.50
31113;DHT22;17763;48.730;9.136;2023-06-22T07:42:27;27.20;93.00
31113;DHT22;17763;48.730;9.136;2023-06-22T07:44:53;27.20;92.70
31113;DHT22;17763;48.730;9.136;2023-06-22T07:47:20;27.20;92.00
31113;DHT22;17763;48.730;9.136;2023-06-22T07:49:46;27.10;91.50
31113;DHT22;17763;48.730;9.136;2023-06-22T07:52:12;27.10;91.70
31113;DHT22;17763;48.730;9.136;2023-06-22T07:54:40;27.20;91.70
31113;DHT22;17763;48.730;9.136;2023-06-22T07:57:06;27.30;91.30
31113;DHT22;17763;48.730;9.136;2023-06-22T07:59:31;27.30;91.30
31113;DHT22;17763;48.730;9.136;2023-06-22T08:02:00;27.40;91.50
31113;DHT22;17763;48.730;9.136;2023-06-22T08:04:26;27.50;90.90
31113;DHT22;17763;48.730;9.136;2023-06-22T08:06:53;27.60;90.40
31113;DHT22;17763;48.730;9.136;2023-06-22T08:09:19;27.60;89.40
31113;DHT22;17763;48.730;9.136;2023-06-22T08:11:45;27.70;88.70
31113;DHT22;17763;48.730;9.136;2023-06-22T08:14:10;27.80;88.00
31113;DHT22;17763;48.730;9.136;2023-06-22T08:16:36;27.80;87.90
31113;DHT22;17763;48.730;9.136;2023-06-22T08:19:04;27.90;88.50
31113;DHT22;17763;48.730;9.136;2023-06-22T08:21:32;27.80;88.90
31113;DHT22;17763;48.730;9.136;2023-06-22T08:23:58;27.80;89.40
31113;DHT22;17763;48.730;9.136;2023-06-22T08:26:23;27.90;89.20
31113;DHT22;17763;48.730;9.136;2023-06-22T08:28:51;27.90;87.70
31113;DHT22;17763;48.730;9.136;2023-06-22T08:31:19;27.90;87.10
31113;DHT22;17763;48.730;9.136;2023-06-22T08:33:47;27.90;86.80
31113;DHT22;17763;48.730;9.136;2023-06-22T08:36:12;28.10;86.10
31113;DHT22;17763;48.730;9.136;2023-06-22T08:38:39;28.30;86.00
31113;DHT22;17763;48.730;9.136;2023-06-22T08:41:04;28.20;85.60
31113;DHT22;17763;48.730;9.136;2023-06-22T08:43:30;28.10;85.00
31113;DHT22;17763;48.730;9.136;2023-06-22T08:45:56;27.90;84.30
31113;DHT22;17763;48.730;9.136;2023-06-22T08:48:21;27.90;84.60
31113;DHT22;17763;48.730;9.136;2023-06-22T08:50:47;27.90;84.80
31113;DHT22;17763;48.730;9.136;2023-06-22T08:53:13;28.00;85.50
31113;DHT22;17763;48.730;9.136;2023-06-22T08:55:38;28.30;84.80
31113;DHT22;17763;48.730;9.136;2023-06-22T08:58:04;28.50;84.20
31113;DHT22;17763;48.730;9.136;2023-06-22T09:00:31;28.60;83.40
31113;DHT22;17763;48.730;9.136;2023-06-22T09:03:02;28.60;82.60
31113;DHT22;17763;48.730;9.136;2023-06-22T09:05:28;28.50;82.30
31113;DHT22;17763;48.730;9.136;2023-06-22T09:07:56;28.50;82.60
31113;DHT22;17763;48.730;9.136;2023-06-22T09:10:24;28.40;82.40
31113;DHT22;17763;48.730;9.136;2023-06-22T09:12:50;28.40;82.90
31113;DHT22;17763;48.730;9.136;2023-06-22T09:15:16;28.60;83.30
31113;DHT22;17763;48.730;9.136;2023-06-22T09:17:44;28.80;82.80
31113;DHT22;17763;48.730;9.136;2023-06-22T09:20:11;29.00;82.00
31113;DHT22;17763;48.730;9.136;2023-06-22T09:22:38;29.20;81.00
31113;DHT22;17763;48.730;9.136;2023-06-22T09:25:04;29.40;80.40
31113;DHT22;17763;48.730;9.136;2023-06-22T09:27:30;29.60;80.30
31113;DHT22;17763;48.730;9.136;2023-06-22T09:29:56;29.70;79.70
31113;DHT22;17763;48.730;9.136;2023-06-22T09:32:24;29.80;78.70
31113;DHT22;17763;48.730;9.136;2023-06-22T09:34:52;29.70;78.60
31113;DHT22;17763;48.730;9.136;2023-06-22T09:37:18;29.80;79.30
31113;DHT22;17763;48.730;9.136;2023-06-22T09:39:44;29.80;79.80
31113;DHT22;17763;48.730;9.136;2023-06-22T09:42:10;29.90;79.40
31113;DHT22;17763;48.730;9.136;2023-06-22T09:44:35;29.90;78.70
31113;DHT22;17763;48.730;9.136;2023-06-22T09:47:01;29.80;79.00
31113;DHT22;17763;48.730;9.136;2023-06-22T09:49:27;29.80;78.80
31113;DHT22;17763;48.730;9.136;2023-06-22T09:51:52;29.80;79.40
31113;DHT22;17763;48.730;9.136;2023-06-22T09:54:18;29.90;79.50
31113;DHT22;17763;48.730;9.136;2023-06-22T09:56:44;29.90;79.40
31113;DHT22;17763;48.730;9.136;2023-06-22T09:59:09;29.90;79.90
31113;DHT22;17763;48.730;9.136;2023-06-22T10:01:35;30.00;79.30
31113;DHT22;17763;48.730;9.136;2023-06-22T10:04:03;30.10;78.40
31113;DHT22;17763;48.730;9.136;2023-06-22T10:06:31;30.20;76.90
31113;DHT22;17763;48.730;9.136;2023-06-22T10:08:59;30.10;77.10
31113;DHT22;17763;48.730;9.136;2023-06-22T10:11:25;30.10;76.90
31113;DHT22;17763;48.730;9.136;2023-06-22T10:13:54;30.10;77.30
31113;DHT22;17763;48.730;9.136;2023-06-22T10:16:20;30.00;76.80
31113;DHT22;17763;48.730;9.136;2023-06-22T10:18:46;30.00;77.80
31113;DHT22;17763;48.730;9.136;2023-06-22T10:21:11;30.00;77.10
31113;DHT22;17763;48.730;9.136;2023-06-22T10:23:37;30.10;77.00
31113;DHT22;17763;48.730;9.136;2023-06-22T10:26:03;30.10;77.90
31113;DHT22;17763;48.730;9.136;2023-06-22T10:28:31;30.20;77.20
31113;DHT22;17763;48.730;9.136;2023-06-22T10:31:01;30.30;76.70
31113;DHT22;17763;48.730;9.136;2023-06-22T10:33:29;30.40;76.30
31113;DHT22;17763;48.730;9.136;2023-06-22T10:35:55;30.50;75.70
31113;DHT22;17763;48.730;9.136;2023-06-22T10:38:20;30.60;75.30
31113;DHT22;17763;48.730;9.136;2023-06-22T10:40:46;30.70;75.70
31113;DHT22;17763;48.730;9.136;2023-06-22T10:43:12;30.90;76.80
31113;DHT22;17763;48.730;9.136;2023-06-22T10:45:40;31.00;73.80
31113;DHT22;17763;48.730;9.136;2023-06-22T10:48:05;31.00;73.70
31113;DHT22;17763;48.730;9.136;2023-06-22T10:50:31;31.00;74.20
31113;DHT22;17763;48.730;9.136;2023-06-22T10:52:58;31.00;73.40
31113;DHT22;17763;48.730;9.136;2023-06-22T10:55:25;31.00;72.90
31113;DHT22;17763;48.730;9.136;2023-06-22T10:57:51;31.00;74.20
31113;DHT22;17763;48.730;9.136;2023-06-22T11:00:17;30.90;73.50
31113;DHT22;17763;48.730;9.136;2023-06-22T11:02:43;30.90;73.10
31113;DHT22;17763;48.730;9.136;2023-06-22T11:05:09;30.90;73.30
31113;DHT22;17763;48.730;9.136;2023-06-22T11:07:36;30.90;73.80
31113;DHT22;17763;48.730;9.136;2023-06-22T11:10:02;31.00;74.40
31113;DHT22;17763;48.730;9.136;2023-06-22T11:12:30;31.00;74.00
31113;DHT22;17763;48.730;9.136;2023-06-22T11:14:59;30.90;73.60
31113;DHT22;17763;48.730;9.136;2023-06-22T11:17:24;30.90;73.30
31113;DHT22;17763;48.730;9.136;2023-06-22T11:19:53;30.90;74.00
31113;DHT22;17763;48.730;9.136;2023-06-22T11:22:18;30.80;73.80
31113;DHT22;17763;48.730;9.136;2023-06-22T11:24:44;30.80;73.60
31113;DHT22;17763;48.730;9.136;2023-06-22T11:27:12;30.70;72.60
31113;DHT22;17763;48.730;9.136;2023-06-22T11:29:40;30.70;72.80
31113;DHT22;17763;48.730;9.136;2023-06-22T11:32:07;30.70;73.50
31113;DHT22;17763;48.730;9.136;2023-06-22T11:34:33;30.60;75.10
31113;DHT22;17763;48.730;9.136;2023-06-22T11:36:58;30.70;75.40
31113;DHT22;17763;48.730;9.136;2023-06-22T11:39:24;30.70;74.90
31113;DHT22;17763;48.730;9.136;2023-06-22T11:41:50;30.80;74.70
31113;DHT22;17763;48.730;9.136;2023-06-22T11:44:15;30.90;74.70
31113;DHT22;17763;48.730;9.136;2023-06-22T11:46:41;31.00;74.80
31113;DHT22;17763;48.730;9.136;2023-06-22T11:49:09;31.00;74.90
31113;DHT22;17763;48.730;9.136;2023-06-22T11:51:35;31.00;74.90
31113;DHT22;17763;48.730;9.136;2023-06-22T11:54:00;30.90;74.70
31113;DHT22;17763;48.730;9.136;2023-06-22T11:56:26;30.90;74.90
31113;DHT22;17763;48.730;9.136;2023-06-22T11:58:53;30.70;74.50
31113;DHT22;17763;48.730;9.136;2023-06-22T12:01:23;30.70;75.40
31113;DHT22;17763;48.730;9.136;2023-06-22T12:03:51;30.70;76.20
31113;DHT22;17763;48.730;9.136;2023-06-22T12:06:17;30.80;75.90
31113;DHT22;17763;48.730;9.136;2023-06-22T12:08:42;30.80;76.30
31113;DHT22;17763;48.730;9.136;2023-06-22T12:11:08;30.80;76.80
31113;DHT22;17763;48.730;9.136;2023-06-22T12:13:33;30.70;76.60
31113;DHT22;17763;48.730;9.136;2023-06-22T12:15:59;30.70;76.50
31113;DHT22;17763;48.730;9.136;2023-06-22T12:18:25;30.70;76.40
31113;DHT22;17763;48.730;9.136;2023-06-22T12:20:52;30.60;75.80
31113;DHT22;17763;48.730;9.136;2023-06-22T12:23:18;30.60;75.80
31113;DHT22;17763;48.730;9.136;2023-06-22T12:25:45;30.50;75.70
31113;DHT22;17763;48.730;9.136;2023-06-22T12:28:11;30.50;75.90
31113;DHT22;17763;48.730;9.136;2023-06-22T12:30:41;30.50;76.10
31113;DHT22;17763;48.730;9.136;2023-06-22T12:33:07;30.50;76.00
31113;DHT22;17763;48.730;9.136;2023-06-22T12:35:34;30.50;75.80
31113;DHT22;17763;48.730;9.136;2023-06-22T12:37:59;30.40;75.30
31113;DHT22;17763;48.730;9.136;2023-06-22T12:40:25;30.40;74.60
31113;DHT22;17763;48.730;9.136;2023-06-22T12:42:50;30.40;73.90
31113;DHT22;17763;48.730;9.136;2023-06-22T12:45:19;30.40;73.70
31113;DHT22;17763;48.730;9.136;2023-06-22T12:47:49;30.40;73.50
31113;DHT22;17763;48.730;9.136;2023-06-22T12:50:15;30.40;73.70
31113;DHT22;17763;48.730;9.136;2023-06-22T12:52:43;30.40;74.80
31113;DHT22;17763;48.730;9.136;2023-06-22T12:55:09;30.40;74.90
31113;DHT22;17763;48.730;9.136;2023-06-22T12:57:35;30.30;75.60
31113;DHT22;17763;48.730;9.136;2023-06-22T13:00:00;30.20;75.60
31113;DHT22;17763;48.730;9.136;2023-06-22T13:02:26;30.20;76.00
31113;DHT22;17763;48.730;9.136;2023-06-22T13:04:52;30.10;76.00
31113;DHT22;17763;48.730;9.136;2023-06-22T13:07:18;30.10;75.90
31113;DHT22;17763;48.730;9.136;2023-06-22T13:09:46;30.00;76.20
31113;DHT22;17763;48.730;9.136;2023-06-22T13:12:12;29.90;76.60
31113;DHT22;17763;48.730;9.136;2023-06-22T13:14:39;29.90;76.90
31113;DHT22;17763;48.730;9.136;2023-06-22T13:17:05;29.90;76.80
31113;DHT22;17763;48.730;9.136;2023-06-22T13:19:31;29.80;76.60
31113;DHT22;17763;48.730;9.136;2023-06-22T13:21:58;29.70;74.80
31113;DHT22;17763;48.730;9.136;2023-06-22T13:24:26;29.80;74.80
31113;DHT22;17763;48.730;9.136;2023-06-22T13:26:51;29.90;74.50
31113;DHT22;17763;48.730;9.136;2023-06-22T13:29:17;29.90;73.50
31113;DHT22;17763;48.730;9.136;2023-06-22T13:31:43;29.90;72.90
31113;DHT22;17763;48.730;9.136;2023-06-22T13:34:10;29.90;72.50
31113;DHT22;17763;48.730;9.136;2023-06-22T13:36:36;30.00;72.90
31113;DHT22;17763;48.730;9.136;2023-06-22T13:39:02;30.10;73.40
31113;DHT22;17763;48.730;9.136;2023-06-22T13:41:29;30.20;73.40
31113;DHT22;17763;48.730;9.136;2023-06-22T13:43:54;30.40;74.50
31113;DHT22;17763;48.730;9.136;2023-06-22T13:46:23;30.50;73.80
31113;DHT22;17763;48.730;9.136;2023-06-22T13:48:48;30.50;72.30
31113;DHT22;17763;48.730;9.136;2023-06-22T13:51:14;30.60;71.50
31113;DHT22;17763;48.730;9.136;2023-06-22T13:53:40;30.50;70.60
31113;DHT22;17763;48.730;9.136;2023-06-22T13:56:05;30.50;70.20
31113;DHT22;17763;48.730;9.136;2023-06-22T13:58:33;30.40;70.40
31113;DHT22;17763;48.730;9.136;2023-06-22T14:00:59;30.50;70.20
31113;DHT22;17763;48.730;9.136;2023-06-22T14:03:24;30.50;70.70
31113;DHT22;17763;48.730;9.136;2023-06-22T14:05:51;30.60;70.00
31113;DHT22;17763;48.730;9.136;2023-06-22T14:08:21;30.60;70.00
31113;DHT22;17763;48.730;9.136;2023-06-22T14:10:49;30.70;70.20
31113;DHT22;17763;48.730;9.136;2023-06-22T14:13:14;30.90;70.20
31113;DHT22;17763;48.730;9.136;2023-06-22T14:15:40;31.00;70.70
31113;DHT22;17763;48.730;9.136;2023-06-22T14:18:05;31.30;69.90
31113;DHT22;17763;48.730;9.136;2023-06-22T14:20:31;31.40;68.20
31113;DHT22;17763;48.730;9.136;2023-06-22T14:22:57;31.60;67.10
31113;DHT22;17763;48.730;9.136;2023-06-22T14:25:25;31.70;66.30
31113;DHT22;17763;48.730;9.136;2023-06-22T14:27:50;31.70;65.10
31113;DHT22;17763;48.730;9.136;2023-06-22T14:30:18;31.70;64.40
31113;DHT22;17763;48.730;9.136;2023-06-22T14:32:46;31.60;62.30
31113;DHT22;17763;48.730;9.136;2023-06-22T14:35:12;31.60;62.60
31113;DHT22;17763;48.730;9.136;2023-06-22T14:37:37;31.50;57.10
31113;DHT22;17763;48.730;9.136;2023-06-22T14:40:03;31.50;57.90
31113;DHT22;17763;48.730;9.136;2023-06-22T14:42:29;31.60;54.80
31113;DHT22;17763;48.730;9.136;2023-06-22T14:44:55;31.70;55.00
31113;DHT22;17763;48.730;9.136;2023-06-22T14:47:21;31.70;54.10
31113;DHT22;17763;48.730;9.136;2023-06-22T14:49:49;31.80;54.70
31113;DHT22;17763;48.730;9.136;2023-06-22T14:52:15;31.70;52.10
31113;DHT22;17763;48.730;9.136;2023-06-22T14:54:43;31.70;50.70
31113;DHT22;17763;48.730;9.136;2023-06-22T14:57:08;31.60;49.70
31113;DHT22;17763;48.730;9.136;2023-06-22T14:59:34;31.50;50.50
31113;DHT22;17763;48.730;9.136;2023-06-22T15:02:00;31.40;49.80
31113;DHT22;17763;48.730;9.136;2023-06-22T15:04:25;31.30;50.00
31113;DHT22;17763;48.730;9.136;2023-06-22T15:06:57;31.00;50.10
31113;DHT22;17763;48.730;9.136;2023-06-22T15:09:22;31.00;51.10
31113;DHT22;17763;48.730;9.136;2023-06-22T15:11:50;31.20;51.00
31113;DHT22;17763;48.730;9.136;2023-06-22T15:14:16;31.30;50.90
31113;DHT22;17763;48.730;9.136;2023-06-22T15:16:41;31.40;50.60
31113;DHT22;17763;48.730;9.136;2023-06-22T15:19:07;31.40;50.20
31113;DHT22;17763;48.730;9.136;2023-06-22T15:21:35;31.50;50.00
31113;DHT22;17763;48.730;9.136;2023-06-22T15:24:01;31.60;49.90
31113;DHT22;17763;48.730;9.136;2023-06-22T15:26:28;31.70;49.90
31113;DHT22;17763;48.730;9.136;2023-06-22T15:28:54;31.70;49.20
31113;DHT22;17763;48.730;9.136;2023-06-22T15:31:20;31.50;49.60
31113;DHT22;17763;48.730;9.136;2023-06-22T15:33:46;31.50;50.20
31113;DHT22;17763;48.730;9.136;2023-06-22T15:36:13;31.50;50.60
31113;DHT22;17763;48.730;9.136;2023-06-22T15:38:39;31.50;50.10